Terminal Aerodrome Forecast
Issued by NWS Charleston, WV

Current Version | Previous Version | Text Only | Print | Product List | Glossary Off
Versions: 1 2 3 4 5 6 7 8 9 10 11 12 13 14 15 16 17 18 19 20 21 22 23 24 25 26 27

283
FTUS41 KRLX 201741
TAFCRW
TAF
KCRW 201741Z 2018/2118 VRB03KT P6SM FEW250
     FM210600 15003KT 5SM BR SCT200
     FM211000 16005KT 6SM BR SCT200
     FM211300 16005KT P6SM BKN200=

USA.gov is the U.S. government's official web portal to all federal, state and local government web resources and services.